ENBR Airport Information

Runway Information
Runway 17 Length 9810 ft width 148 ft
Elevation 165 ft Threshold 886 ft Heading 171
Runway 35 Length 9810 ft Width 148 ft
Elevation 146 ft Threshold 889 ft Heading 351
Airport Frequencies
Type APP Name RADAR Frequency 121 MHZ
Type ARR Name ARR Frequency 125 MHZ
Type ATIS Name ATIS Frequency 125.25 MHZ
Type DIR Name DIRECTOR Frequency 118.85 MHZ
Type GND Name GND Frequency 121.9 MHZ
Type TWR Name TWR Frequency 119.1 MHZ
Airport Navaids
Type NDB Name Askoy Frequency 360 KHZ
Type NDB Name Bratta Frequency 336 KHZ
Type TACAN Name Flesland Frequency 114500 KHZ
Type VOR-DME Name Flesland Frequency 115550 KHZ
Type VOR-DME Name Vollo Frequency 114850 KHZ
Airport Weather Information & NOTAM
ADDS - METARS form results

(1145 UTC 18 October 2018)
Data provider http://aviationweather.gov/metar/data/
 
METAR text: ENBR 181120Z VRB01KT 9999 VCSH FEW015TCU SCT025 SCT055 08/06 Q1024 TEMPO SHRA BKN014TCU RMK WIND 1200FT 28008KT
Conditions at: ENBR (BERGEN/FLESLAND , NO) observed 1120 UTC 18 October 2018
Temperature: 8.0°C (46°F)
Dewpoint: 6.0°C (43°F) [RH = 87%]
Pressure (altimeter): 30.24 inches Hg (1024.0 mb)
Winds: variable direction winds at 1 MPH (1 knots; 0.5 m/s)
Visibility: 6 or more miles (10+ km)
Ceiling: at least 12,000 feet AGL
Clouds: few clouds at 1500 feet AGL
scattered clouds at 2500 feet AGL
scattered clouds at 5500 feet AGL
Weather: VCSH  (showers in vicinity)

METAR text: ENBR 181050Z 27007KT 220V340 9999 -SHRA FEW015TCU FEW025 BKN035 09/05 Q1024 TEMPO SHRA BKN014TCU RMK WIND 1200FT 28006KT
Conditions at: ENBR (BERGEN/FLESLAND , NO) observed 1050 UTC 18 October 2018
Temperature: 9.0°C (48°F)
Dewpoint: 5.0°C (41°F) [RH = 76%]
Pressure (altimeter): 30.24 inches Hg (1024.0 mb)
Winds: from the W (270 degrees) at 8 MPH (7 knots; 3.6 m/s)
Visibility: 6 or more miles (10+ km)
Ceiling: 3500 feet AGL
Clouds: few clouds at 1500 feet AGL
few clouds at 2500 feet AGL
broken clouds at 3500 feet AGL
Weather: -SHRA  (light rain showers)

Forecast for: ENBR (BERGEN/FLESLAND , NO)
Text: TAF ENBR 1806/1906 VRB05KT 9999 -SHRA SCT020 BKN040
Forecast period: 0600 UTC 18 October 2018 to 0600 UTC 19 October 2018
Forecast type: FROM: standard forecast or significant change
Winds: variable direction winds at 6 MPH (5 knots; 2.6 m/s)
Visibility: 6 or more miles 10+ km)
Ceiling: 4000 feet AGL
Clouds: scattered clouds at 2000 feet AGL
broken clouds at 4000 feet AGL
Weather: -SHRA  (light rain showers)
Text: TEMPO 1806/1814 SHRA BKN014TCU
Forecast period: 0600 to 1400 UTC 18 October 2018
Forecast type: TEMPORARY: The following changes expected for less than half the time period
Visibility: missing
Ceiling: 1400 feet AGL
Clouds: broken clouds at 1400 feet AGL
Weather: SHRA  (rain showers)